Time;durP1;ratioP1;P1;durP2;ratioP2;P2;SDS_P1;SDS_P2;PMS_P1;PMS_P2;Temp;Humidity;BMP_temperature;BMP_pressure;BME280_temperature;BME280_humidity;BME280_pressure;Samples;Min_cycle;Max_cycle;Signal;HPM_P1;HPM_P2
2023/11/23 00:01:15;;;;;;;2.70;1.60;;;;;;;7.54;96.98;100941.03;4973928;28;20121;-76
2023/11/23 00:03:43;;;;;;;4.40;2.20;;;;;;;7.66;96.66;100951.84;4973352;28;20114;-77
2023/11/23 00:06:09;;;;;;;4.95;2.92;;;;;;;7.60;96.96;100932.50;4973642;28;20038;-77
2023/11/23 00:08:40;;;;;;;4.82;2.40;;;;;;;7.72;97.35;100937.91;4970675;28;20045;-77
2023/11/23 00:11:07;;;;;;;4.88;2.72;;;;;;;7.72;97.68;100939.81;4980653;28;20035;-77
2023/11/23 00:13:35;;;;;;;4.68;2.20;;;;;;;7.86;97.26;100927.69;4976517;28;20101;-75
2023/11/23 00:16:01;;;;;;;6.72;2.75;;;;;;;7.73;99.09;100936.00;4974465;28;20034;-76
2023/11/23 00:18:26;;;;;;;5.18;2.65;;;;;;;7.74;99.16;100913.47;4969573;28;20038;-75
2023/11/23 00:20:52;;;;;;;6.45;2.15;;;;;;;7.92;99.20;100909.50;4980624;28;20441;-77
2023/11/23 00:23:18;;;;;;;6.15;2.55;;;;;;;8.00;99.44;100911.31;4974874;28;20054;-75
2023/11/23 00:25:44;;;;;;;4.55;2.50;;;;;;;8.01;99.29;100894.88;4963190;28;20046;-78
2023/11/23 00:28:12;;;;;;;4.32;2.97;;;;;;;8.06;99.74;100910.78;4975782;28;20027;-77
2023/11/23 00:30:38;;;;;;;4.20;2.33;;;;;;;8.18;99.63;100901.97;4973009;28;20035;-76
2023/11/23 00:33:03;;;;;;;5.82;2.28;;;;;;;8.22;100.00;100892.16;4969282;28;20589;-77
2023/11/23 00:35:29;;;;;;;5.53;2.88;;;;;;;8.15;100.00;100884.66;4969025;28;20038;-77
2023/11/23 00:37:58;;;;;;;7.57;2.85;;;;;;;8.07;100.00;100877.47;4975778;28;20100;-77
2023/11/23 00:40:24;;;;;;;5.28;2.45;;;;;;;8.19;100.00;100872.13;4960013;28;20022;-77
2023/11/23 00:42:50;;;;;;;4.38;2.20;;;;;;;8.28;100.00;100879.34;4963138;28;20117;-76
2023/11/23 00:45:15;;;;;;;5.13;2.25;;;;;;;8.25;100.00;100874.63;4975935;28;20039;-77
2023/11/23 00:47:42;;;;;;;4.03;2.10;;;;;;;8.17;100.00;100865.53;4975252;28;20528;-78
2023/11/23 00:50:08;;;;;;;4.47;1.95;;;;;;;8.19;100.00;100869.44;4972508;28;20058;-76
2023/11/23 00:52:34;;;;;;;4.10;2.08;;;;;;;8.11;100.00;100869.53;4974689;28;20413;-78
2023/11/23 00:55:00;;;;;;;5.38;2.70;;;;;;;8.35;100.00;100864.25;4963577;28;20039;-77
2023/11/23 00:57:25;;;;;;;6.20;2.90;;;;;;;8.39;100.00;100861.69;4973363;28;20065;-77
2023/11/23 00:59:50;;;;;;;4.00;2.35;;;;;;;8.44;100.00;100872.22;4973778;28;20495;-76
2023/11/23 01:02:16;;;;;;;6.60;2.80;;;;;;;8.53;100.00;100864.81;4976316;28;20038;-77
2023/11/23 01:04:42;;;;;;;6.32;2.80;;;;;;;8.46;100.00;100862.69;4971618;28;20403;-77
2023/11/23 01:07:07;;;;;;;5.25;2.55;;;;;;;8.56;100.00;100848.81;4970659;28;20041;-77
2023/11/23 01:09:33;;;;;;;4.75;2.65;;;;;;;8.45;100.00;100855.75;4951664;28;20056;-77
2023/11/23 01:12:01;;;;;;;6.45;2.53;;;;;;;8.46;100.00;100848.50;4957926;28;20026;-77
2023/11/23 01:14:27;;;;;;;6.07;2.60;;;;;;;8.47;100.00;100847.38;4971025;28;20035;-78
2023/11/23 01:16:52;;;;;;;5.22;2.42;;;;;;;8.46;100.00;100861.94;4964933;28;20048;-77
2023/11/23 01:19:17;;;;;;;6.53;2.58;;;;;;;8.69;100.00;100853.06;4962835;28;20035;-75
2023/11/23 01:21:43;;;;;;;6.55;2.80;;;;;;;8.56;100.00;100851.50;4971558;28;20102;-77
2023/11/23 01:24:09;;;;;;;5.75;2.78;;;;;;;8.61;100.00;100854.00;4970004;28;20063;-76
2023/11/23 01:26:35;;;;;;;4.30;2.35;;;;;;;8.73;100.00;100864.69;4969757;28;20038;-77
2023/11/23 01:29:01;;;;;;;4.38;1.92;;;;;;;8.78;100.00;100858.31;4967620;28;20026;-77
2023/11/23 01:31:26;;;;;;;3.70;2.20;;;;;;;8.59;100.00;100853.53;4973854;28;20119;-77
2023/11/23 01:33:52;;;;;;;5.80;2.75;;;;;;;8.59;100.00;100850.84;4959309;28;20077;-76
2023/11/23 01:36:17;;;;;;;2.42;1.88;;;;;;;8.66;100.00;100853.75;4966820;28;20039;-77
2023/11/23 01:38:43;;;;;;;2.80;2.28;;;;;;;8.64;100.00;100850.63;4970942;28;20043;-77
2023/11/23 01:41:08;;;;;;;5.55;2.83;;;;;;;8.74;100.00;100860.91;4970503;28;20513;-77
2023/11/23 01:43:33;;;;;;;7.15;2.53;;;;;;;8.93;100.00;100858.41;4972091;28;20490;-77
2023/11/23 01:46:00;;;;;;;9.35;2.65;;;;;;;8.95;100.00;100842.75;4964869;28;20026;-76
2023/11/23 01:48:30;;;;;;;5.45;2.65;;;;;;;9.00;100.00;100844.44;4967585;28;20031;-75
2023/11/23 01:50:57;;;;;;;2.92;1.92;;;;;;;9.01;100.00;100845.97;4981701;28;20141;-77
2023/11/23 01:53:23;;;;;;;4.78;2.58;;;;;;;8.87;100.00;100849.03;4979834;28;20517;-77
2023/11/23 01:55:48;;;;;;;6.28;2.70;;;;;;;9.10;100.00;100831.28;4959458;28;20173;-77
2023/11/23 01:58:16;;;;;;;7.10;3.15;;;;;;;8.89;100.00;100841.41;4954916;28;20034;-76
2023/11/23 02:00:42;;;;;;;9.63;2.25;;;;;;;8.86;100.00;100817.94;4984323;28;20537;-75
2023/11/23 02:03:08;;;;;;;5.28;2.25;;;;;;;8.93;100.00;100826.19;4974837;28;20752;-76
2023/11/23 02:05:33;;;;;;;3.90;2.28;;;;;;;9.18;100.00;100823.44;4984464;28;20039;-75
2023/11/23 02:07:58;;;;;;;5.57;2.58;;;;;;;9.14;100.00;100817.97;4973951;28;21625;-76
2023/11/23 02:10:25;;;;;;;5.53;2.60;;;;;;;9.09;100.00;100819.00;4971898;28;20061;-76
2023/11/23 02:12:51;;;;;;;5.18;2.35;;;;;;;9.32;100.00;100819.25;4957396;28;20153;-76
2023/11/23 02:15:17;;;;;;;3.53;1.95;;;;;;;9.05;100.00;100810.06;4974611;28;20625;-77
2023/11/23 02:17:43;;;;;;;5.65;2.92;;;;;;;9.34;100.00;100808.94;4980577;28;20078;-76
2023/11/23 02:20:10;;;;;;;5.03;2.78;;;;;;;9.43;100.00;100796.13;4985507;28;20056;-75
2023/11/23 02:22:36;;;;;;;4.65;2.38;;;;;;;9.43;100.00;100798.03;4978583;28;20031;-76
2023/11/23 02:25:06;;;;;;;7.85;2.97;;;;;;;9.45;100.00;100791.19;4963594;28;20026;-76
2023/11/23 02:27:35;;;;;;;6.80;3.00;;;;;;;9.42;100.00;100796.47;4978899;28;20034;-77
2023/11/23 02:30:01;;;;;;;3.17;2.40;;;;;;;9.40;100.00;100786.06;4967568;28;20502;-76
2023/11/23 02:32:27;;;;;;;5.63;2.47;;;;;;;9.45;100.00;100787.72;4972447;28;20030;-76
2023/11/23 02:34:52;;;;;;;7.13;3.00;;;;;;;9.27;100.00;100781.84;4974151;28;20035;-76
2023/11/23 02:37:17;;;;;;;7.28;3.15;;;;;;;9.38;100.00;100782.16;4974188;28;20043;-76
2023/11/23 02:39:43;;;;;;;5.25;3.42;;;;;;;9.51;100.00;100772.91;4975455;28;20031;-77
2023/11/23 02:42:09;;;;;;;4.82;2.67;;;;;;;9.61;100.00;100769.72;4972147;28;20026;-78
2023/11/23 02:44:35;;;;;;;6.22;2.78;;;;;;;9.58;100.00;100770.41;4969793;28;20085;-75
2023/11/23 02:47:03;;;;;;;5.95;2.88;;;;;;;9.46;100.00;100762.41;4953707;28;20390;-77
2023/11/23 02:49:29;;;;;;;4.30;2.47;;;;;;;9.53;100.00;100762.59;4979242;28;20038;-77
2023/11/23 02:51:55;;;;;;;5.15;2.78;;;;;;;9.58;100.00;100754.28;4975493;28;20046;-77
2023/11/23 02:54:20;;;;;;;5.53;3.30;;;;;;;9.52;100.00;100759.16;4967509;28;20565;-78
2023/11/23 02:56:46;;;;;;;6.78;2.97;;;;;;;9.70;100.00;100754.19;4964474;28;20030;-78
2023/11/23 02:59:11;;;;;;;11.02;3.50;;;;;;;9.79;100.00;100741.38;4976536;28;20035;-77
2023/11/23 03:01:37;;;;;;;7.60;3.30;;;;;;;9.83;100.00;100744.94;4972391;28;20042;-77
2023/11/23 03:04:04;;;;;;;5.60;2.90;;;;;;;9.71;100.00;100750.41;4971701;28;20125;-76
2023/11/23 03:06:32;;;;;;;7.35;3.55;;;;;;;9.88;100.00;100752.75;4974941;28;20062;-77
2023/11/23 03:08:58;;;;;;;6.05;3.22;;;;;;;9.81;100.00;100752.56;4972088;28;20075;-77
2023/11/23 03:11:26;;;;;;;9.65;3.70;;;;;;;10.03;100.00;100736.59;4978670;28;20038;-77
2023/11/23 03:13:52;;;;;;;9.70;3.45;;;;;;;9.96;100.00;100731.06;4957538;28;20031;-77
2023/11/23 03:16:20;;;;;;;7.53;3.33;;;;;;;9.96;100.00;100722.19;4988292;28;20070;-77
2023/11/23 03:18:45;;;;;;;8.32;3.13;;;;;;;9.99;100.00;100722.28;4973176;28;20058;-77
2023/11/23 03:21:11;;;;;;;7.82;3.08;;;;;;;9.91;100.00;100725.16;4971466;28;20047;-77
2023/11/23 03:23:37;;;;;;;10.20;3.80;;;;;;;9.83;100.00;100723.44;4969008;28;20117;-78
2023/11/23 03:26:03;;;;;;;5.75;2.90;;;;;;;10.17;100.00;100713.84;4957790;28;20524;-76
2023/11/23 03:28:29;;;;;;;4.60;3.13;;;;;;;10.09;100.00;100710.19;4956824;28;20026;-76
2023/11/23 03:30:55;;;;;;;8.48;3.63;;;;;;;9.99;100.00;100697.28;4991147;28;20039;-77
2023/11/23 03:33:21;;;;;;;5.55;3.08;;;;;;;10.11;100.00;100710.66;4967370;28;20081;-76
2023/11/23 03:35:47;;;;;;;5.97;3.53;;;;;;;10.30;100.00;100710.72;4978128;28;20026;-77
2023/11/23 03:38:13;;;;;;;6.13;2.92;;;;;;;10.12;100.00;100709.53;4968080;28;20030;-75
2023/11/23 03:40:38;;;;;;;4.43;2.33;;;;;;;10.01;100.00;100703.09;4973779;28;20035;-77
2023/11/23 03:43:04;;;;;;;7.47;3.08;;;;;;;9.69;100.00;100691.59;4967807;28;20066;-76
2023/11/23 03:45:30;;;;;;;6.80;3.15;;;;;;;9.94;100.00;100701.03;4989975;28;20500;-77
2023/11/23 03:47:56;;;;;;;6.13;3.22;;;;;;;10.13;100.00;100699.53;4970860;28;20042;-77
2023/11/23 03:50:24;;;;;;;10.45;3.25;;;;;;;10.07;100.00;100701.69;4970696;28;20600;-77
2023/11/23 03:52:50;;;;;;;7.25;3.35;;;;;;;10.20;100.00;100689.72;4972618;28;21031;-76
2023/11/23 03:55:15;;;;;;;6.50;3.08;;;;;;;10.17;100.00;100690.44;4969970;28;20070;-76
2023/11/23 03:57:41;;;;;;;7.35;3.70;;;;;;;10.15;100.00;100691.91;4971134;28;20094;-76
2023/11/23 04:00:07;;;;;;;7.00;3.15;;;;;;;10.25;100.00;100685.97;4974170;28;20037;-77
2023/11/23 04:02:34;;;;;;;7.25;3.72;;;;;;;10.12;100.00;100687.22;4972046;28;20642;-76
2023/11/23 04:04:59;;;;;;;7.57;3.53;;;;;;;10.17;100.00;100686.94;4973849;28;20121;-77
2023/11/23 04:07:24;;;;;;;4.68;2.80;;;;;;;10.25;100.00;100669.84;4953843;28;20348;-74
2023/11/23 04:09:50;;;;;;;8.85;3.15;;;;;;;10.39;100.00;100665.56;4947114;28;20080;-76
2023/11/23 04:12:16;;;;;;;9.43;3.83;;;;;;;10.35;100.00;100662.00;4956428;28;20549;-76
2023/11/23 04:14:41;;;;;;;6.45;3.70;;;;;;;10.32;100.00;100660.00;4955958;28;20038;-76
2023/11/23 04:17:07;;;;;;;5.95;3.17;;;;;;;10.49;100.00;100653.44;4954537;28;20062;-76
2023/11/23 04:19:32;;;;;;;6.55;3.67;;;;;;;10.40;100.00;100653.63;4954135;28;20125;-76
2023/11/23 04:21:59;;;;;;;8.07;3.88;;;;;;;10.43;100.00;100644.84;4973229;28;20516;-75
2023/11/23 04:24:26;;;;;;;6.30;3.47;;;;;;;10.41;100.00;100639.06;4959109;28;20030;-76
2023/11/23 04:26:52;;;;;;;7.43;3.47;;;;;;;10.29;100.00;100647.25;4971894;28;20038;-74
2023/11/23 04:29:18;;;;;;;5.80;2.97;;;;;;;10.35;100.00;100648.53;4955410;28;20514;-75
2023/11/23 04:31:44;;;;;;;9.30;3.20;;;;;;;10.43;100.00;100639.44;4971806;28;20041;-76
2023/11/23 04:34:10;;;;;;;8.57;3.78;;;;;;;10.61;100.00;100645.19;4967818;28;20093;-75
2023/11/23 04:36:36;;;;;;;5.43;3.35;;;;;;;10.49;100.00;100645.38;4957802;28;20039;-75
2023/11/23 04:39:03;;;;;;;6.22;3.22;;;;;;;10.39;100.00;100641.31;4971909;28;20015;-76
2023/11/23 04:41:28;;;;;;;9.32;3.83;;;;;;;10.56;100.00;100637.41;4948410;28;20046;-76
2023/11/23 04:43:54;;;;;;;5.13;2.47;;;;;;;10.55;100.00;100631.25;4956396;28;20041;-76
2023/11/23 04:46:20;;;;;;;3.72;2.47;;;;;;;10.52;100.00;100623.88;4968736;28;20702;-75
2023/11/23 04:48:47;;;;;;;8.98;2.75;;;;;;;10.67;100.00;100641.88;4936930;28;20025;-76
2023/11/23 04:51:15;;;;;;;6.43;2.92;;;;;;;10.61;100.00;100629.84;4955454;28;20043;-76
2023/11/23 04:53:42;;;;;;;7.85;2.75;;;;;;;10.73;100.00;100637.78;4935649;28;20041;-75
2023/11/23 04:56:07;;;;;;;4.80;2.60;;;;;;;10.71;100.00;100634.66;4972916;28;20046;-76
2023/11/23 04:58:33;;;;;;;6.35;2.67;;;;;;;10.73;100.00;100631.59;4954652;28;20144;-75
2023/11/23 05:01:01;;;;;;;5.55;2.97;;;;;;;10.77;100.00;100633.22;4945540;28;20031;-73
2023/11/23 05:03:33;;;;;;;7.82;3.33;;;;;;;10.86;100.00;100616.81;4953276;28;20097;-76
2023/11/23 05:05:58;;;;;;;5.82;2.60;;;;;;;10.83;100.00;100606.78;4966954;28;20062;-76
2023/11/23 05:08:24;;;;;;;8.43;3.75;;;;;;;10.75;100.00;100602.41;4966281;28;20018;-75
2023/11/23 05:10:50;;;;;;;6.90;3.22;;;;;;;10.88;100.00;100591.09;4970566;28;20035;-75
2023/11/23 05:13:15;;;;;;;7.47;2.97;;;;;;;10.84;100.00;100601.03;4972018;28;20057;-76
2023/11/23 05:15:41;;;;;;;7.45;3.30;;;;;;;10.86;100.00;100593.38;4968032;28;20035;-75
2023/11/23 05:18:07;;;;;;;6.65;3.33;;;;;;;10.96;100.00;100592.00;4981607;28;20118;-76
2023/11/23 05:20:33;;;;;;;3.65;2.42;;;;;;;11.04;100.00;100595.59;4971644;28;20038;-76
2023/11/23 05:23:01;;;;;;;4.43;2.47;;;;;;;11.04;100.00;100596.38;4968997;28;20030;-75
2023/11/23 05:25:26;;;;;;;4.28;2.67;;;;;;;11.14;100.00;100592.31;4971905;28;20133;-76
2023/11/23 05:27:54;;;;;;;7.75;2.97;;;;;;;11.11;100.00;100595.72;4970119;28;20113;-76
2023/11/23 05:30:20;;;;;;;8.00;2.95;;;;;;;11.16;100.00;100606.19;4969450;28;20110;-76
2023/11/23 05:32:45;;;;;;;7.93;3.55;;;;;;;11.17;100.00;100595.06;4972251;28;20043;-76
2023/11/23 05:35:14;;;;;;;5.60;3.60;;;;;;;11.19;100.00;100603.56;4950708;28;20038;-75
2023/11/23 05:37:39;;;;;;;5.20;3.10;;;;;;;10.94;100.00;100593.50;4969911;28;20030;-75
2023/11/23 05:40:09;;;;;;;7.03;2.75;;;;;;;11.20;100.00;100588.19;4971527;28;20038;-76
2023/11/23 05:42:41;;;;;;;5.63;3.50;;;;;;;11.16;100.00;100581.94;4955168;28;20045;-76
2023/11/23 05:45:08;;;;;;;5.53;3.30;;;;;;;11.19;100.00;100578.53;4970418;28;20045;-76
2023/11/23 05:47:36;;;;;;;5.93;3.05;;;;;;;11.33;100.00;100576.84;4967101;28;20023;-76
2023/11/23 05:50:03;;;;;;;4.15;2.28;;;;;;;11.32;100.00;100582.59;4969447;28;20038;-76
2023/11/23 05:52:29;;;;;;;4.05;2.58;;;;;;;11.38;100.00;100571.13;4963984;28;20035;-75
2023/11/23 05:54:55;;;;;;;3.55;2.63;;;;;;;11.35;100.00;100571.09;4955929;28;20049;-75
2023/11/23 05:57:21;;;;;;;3.72;2.65;;;;;;;11.45;100.00;100571.25;4969762;28;20031;-76
2023/11/23 05:59:46;;;;;;;5.07;2.88;;;;;;;11.46;100.00;100555.84;4973093;28;20486;-75
2023/11/23 06:02:12;;;;;;;9.13;3.42;;;;;;;11.40;100.00;100560.00;4969181;28;20038;-75
2023/11/23 06:04:37;;;;;;;4.97;2.72;;;;;;;11.29;100.00;100550.97;4965543;28;20037;-76
2023/11/23 06:07:06;;;;;;;4.78;2.95;;;;;;;11.44;100.00;100550.06;4969254;28;20490;-75
2023/11/23 06:09:31;;;;;;;8.15;3.63;;;;;;;11.64;100.00;100552.28;4970674;28;20019;-75
2023/11/23 06:11:59;;;;;;;9.07;3.08;;;;;;;11.44;100.00;100541.97;4972073;28;20043;-76
2023/11/23 06:14:25;;;;;;;5.25;2.75;;;;;;;11.62;100.00;100554.56;4970982;28;20053;-76
2023/11/23 06:16:51;;;;;;;4.38;2.17;;;;;;;11.73;100.00;100547.41;4976216;28;20030;-74
2023/11/23 06:19:17;;;;;;;7.22;1.67;;;;;;;11.66;100.00;100544.63;4967310;28;20023;-74
2023/11/23 06:21:43;;;;;;;4.75;2.53;;;;;;;11.58;100.00;100540.25;4948417;28;20101;-75
2023/11/23 06:24:08;;;;;;;3.60;1.70;;;;;;;11.74;100.00;100530.09;4972569;28;20030;-76
2023/11/23 06:26:34;;;;;;;4.40;2.53;;;;;;;11.81;100.00;100537.50;4969380;28;20409;-75
2023/11/23 06:29:02;;;;;;;4.65;2.38;;;;;;;11.85;100.00;100541.03;4969463;28;20035;-75
2023/11/23 06:31:28;;;;;;;3.08;1.85;;;;;;;11.78;100.00;100530.94;4972987;28;20035;-75
2023/11/23 06:33:53;;;;;;;4.97;2.17;;;;;;;11.86;100.00;100521.00;4968725;28;20053;-75
2023/11/23 06:36:19;;;;;;;4.07;2.22;;;;;;;11.90;100.00;100524.53;4969597;28;20050;-76
2023/11/23 06:38:44;;;;;;;4.28;2.13;;;;;;;11.87;100.00;100510.97;4971049;28;20030;-75
2023/11/23 06:41:18;;;;;;;5.32;2.30;;;;;;;11.94;100.00;100517.25;4968312;28;20035;-75
2023/11/23 06:43:45;;;;;;;4.65;2.00;;;;;;;11.75;100.00;100506.56;4953915;28;20030;-76
2023/11/23 06:46:11;;;;;;;2.85;1.70;;;;;;;11.73;100.00;100515.03;4972022;28;20035;-75
2023/11/23 06:48:36;;;;;;;2.63;2.00;;;;;;;11.77;100.00;100507.78;4967947;28;20068;-74
2023/11/23 06:51:02;;;;;;;3.35;1.80;;;;;;;11.93;100.00;100494.09;4970765;28;20145;-76
2023/11/23 06:53:28;;;;;;;2.97;1.52;;;;;;;12.01;100.00;100484.94;4972525;28;20425;-74
2023/11/23 06:55:54;;;;;;;3.58;1.65;;;;;;;12.12;100.00;100485.06;4986974;28;20110;-76
2023/11/23 06:58:21;;;;;;;1.85;1.45;;;;;;;11.96;100.00;100479.88;4985926;28;20024;-76
2023/11/23 07:00:46;;;;;;;2.95;1.48;;;;;;;11.92;100.00;100492.56;4971576;28;20403;-75
2023/11/23 07:03:14;;;;;;;4.45;1.52;;;;;;;11.76;100.00;100473.06;4972661;28;20035;-76
2023/11/23 07:05:40;;;;;;;4.75;2.03;;;;;;;11.91;100.00;100476.72;4966528;28;20049;-75
2023/11/23 07:08:05;;;;;;;8.52;1.73;;;;;;;12.17;100.00;100472.03;4952266;28;20035;-75
2023/11/23 07:10:33;;;;;;;4.63;1.48;;;;;;;12.20;100.00;100468.56;4971076;28;20046;-76
2023/11/23 07:12:59;;;;;;;1.83;1.30;;;;;;;12.16;100.00;100450.78;4969206;28;20061;-75
2023/11/23 07:15:26;;;;;;;2.33;1.35;;;;;;;11.91;100.00;100458.59;4963232;28;20038;-75
2023/11/23 07:17:51;;;;;;;2.67;1.25;;;;;;;11.97;100.00;100440.16;4967462;28;20023;-76
2023/11/23 07:20:18;;;;;;;5.82;1.30;;;;;;;12.18;100.00;100451.97;4970149;28;20066;-75
2023/11/23 07:22:43;;;;;;;4.55;1.73;;;;;;;12.08;100.00;100436.44;4972330;28;20498;-76
2023/11/23 07:25:09;;;;;;;3.13;1.60;;;;;;;12.23;100.00;100437.38;4971257;28;20041;-76
2023/11/23 07:27:36;;;;;;;3.25;1.48;;;;;;;12.03;100.00;100428.69;4955240;28;20081;-76
2023/11/23 07:30:06;;;;;;;3.53;1.35;;;;;;;12.27;100.00;100438.19;4949517;28;20409;-76
2023/11/23 07:32:33;;;;;;;0.98;0.93;;;;;;;12.09;100.00;100437.22;4968621;28;20038;-76
2023/11/23 07:35:01;;;;;;;2.00;1.08;;;;;;;12.18;100.00;100416.88;4969395;28;20044;-74
2023/11/23 07:37:26;;;;;;;2.28;1.25;;;;;;;11.97;100.00;100432.06;4967752;28;20391;-74
2023/11/23 07:39:52;;;;;;;3.58;1.35;;;;;;;12.04;100.00;100419.41;4972225;28;20105;-76
2023/11/23 07:42:17;;;;;;;2.75;1.42;;;;;;;12.24;100.00;100425.41;4972386;28;20055;-74
2023/11/23 07:44:45;;;;;;;4.18;1.67;;;;;;;12.29;100.00;100430.50;4954241;28;20058;-74
2023/11/23 07:47:13;;;;;;;1.73;0.98;;;;;;;12.33;100.00;100434.00;4970985;28;20022;-76
2023/11/23 07:49:40;;;;;;;3.40;1.63;;;;;;;12.10;100.00;100436.09;4970102;28;20033;-75
2023/11/23 07:52:06;;;;;;;3.72;1.42;;;;;;;12.29;100.00;100428.53;4972446;28;20043;-75
2023/11/23 07:54:31;;;;;;;4.45;1.30;;;;;;;12.31;100.00;100423.53;4968828;28;20097;-75
2023/11/23 07:56:57;;;;;;;6.93;1.40;;;;;;;12.32;100.00;100425.13;4967995;28;20545;-76
2023/11/23 07:59:22;;;;;;;5.93;1.50;;;;;;;12.21;100.00;100426.94;4972839;28;20057;-76
2023/11/23 08:01:48;;;;;;;6.47;1.65;;;;;;;12.24;100.00;100418.09;4953044;28;20721;-76
2023/11/23 08:04:14;;;;;;;2.75;1.92;;;;;;;12.22;100.00;100417.69;4965949;28;20506;-76
2023/11/23 08:06:40;;;;;;;2.42;1.48;;;;;;;12.29;100.00;100415.03;4970032;28;20106;-74
2023/11/23 08:09:05;;;;;;;2.38;1.15;;;;;;;12.29;100.00;100408.88;4940555;28;20046;-76
2023/11/23 08:11:31;;;;;;;2.70;1.48;;;;;;;12.38;100.00;100406.66;4938856;28;20053;-75
2023/11/23 08:14:00;;;;;;;3.33;1.35;;;;;;;12.30;100.00;100402.31;4956338;28;20733;-76
2023/11/23 08:16:25;;;;;;;3.15;2.00;;;;;;;12.28;100.00;100383.81;4957782;28;20050;-76
2023/11/23 08:18:51;;;;;;;7.68;0.95;;;;;;;12.43;100.00;100376.59;4955092;28;20033;-75
2023/11/23 08:21:16;;;;;;;7.35;1.38;;;;;;;12.28;100.00;100372.22;4970716;28;20118;-76
2023/11/23 08:23:42;;;;;;;4.97;1.23;;;;;;;12.29;100.00;100390.00;4955171;28;20495;-76
2023/11/23 08:26:08;;;;;;;2.10;1.13;;;;;;;12.20;100.00;100390.28;4944819;28;20512;-75
2023/11/23 08:28:33;;;;;;;5.25;0.88;;;;;;;12.34;100.00;100392.34;4951693;28;20057;-76
2023/11/23 08:30:59;;;;;;;3.17;0.77;;;;;;;12.27;100.00;100389.56;4957183;28;20054;-76
2023/11/23 08:33:24;;;;;;;1.63;1.00;;;;;;;12.38;100.00;100399.31;4958236;28;20115;-76
2023/11/23 08:35:53;;;;;;;2.22;0.90;;;;;;;12.50;100.00;100390.16;4973000;28;20405;-75
2023/11/23 08:38:21;;;;;;;3.25;0.95;;;;;;;12.28;100.00;100391.13;4972286;28;20045;-76
2023/11/23 08:40:47;;;;;;;2.67;1.45;;;;;;;12.45;100.00;100385.88;4967143;28;20122;-76
2023/11/23 08:43:12;;;;;;;3.55;1.33;;;;;;;12.55;100.00;100390.59;4955850;28;20046;-76
2023/11/23 08:45:38;;;;;;;1.27;0.57;;;;;;;12.35;100.00;100383.84;4936844;28;20130;-76
2023/11/23 08:48:04;;;;;;;2.22;0.75;;;;;;;12.29;100.00;100382.63;4970576;28;20119;-76
2023/11/23 08:50:30;;;;;;;4.43;1.08;;;;;;;12.44;100.00;100383.56;4969935;28;20437;-72
2023/11/23 08:52:57;;;;;;;1.35;0.88;;;;;;;12.30;100.00;100383.41;4948395;28;20035;-76
2023/11/23 08:55:26;;;;;;;6.28;1.48;;;;;;;12.29;100.00;100374.53;4972780;28;20058;-77
2023/11/23 08:57:51;;;;;;;1.70;0.82;;;;;;;12.52;100.00;100368.97;4938499;28;20069;-76
2023/11/23 09:00:23;;;;;;;3.92;0.77;;;;;;;12.35;100.00;100364.19;4956756;28;20035;-76
2023/11/23 09:02:53;;;;;;;6.45;0.95;;;;;;;12.32;100.00;100365.72;4957292;28;20481;-74
2023/11/23 09:05:20;;;;;;;2.72;1.00;;;;;;;12.61;100.00;100362.09;4952395;28;20416;-76
2023/11/23 09:07:48;;;;;;;6.88;2.38;;;;;;;12.47;100.00;100355.78;4958529;28;20026;-76
2023/11/23 09:10:14;;;;;;;2.08;1.10;;;;;;;12.47;100.00;100344.97;4971694;28;20027;-75
2023/11/23 09:12:40;;;;;;;1.20;0.57;;;;;;;12.67;100.00;100351.69;4973054;28;20077;-76
2023/11/23 09:15:07;;;;;;;1.88;0.55;;;;;;;12.65;100.00;100343.97;4967588;28;20066;-74
2023/11/23 09:17:34;;;;;;;2.97;1.02;;;;;;;12.77;100.00;100339.41;4968551;28;20085;-75
2023/11/23 09:19:59;;;;;;;3.70;0.85;;;;;;;12.50;100.00;100328.03;4970473;28;20092;-74
2023/11/23 09:22:25;;;;;;;2.17;1.00;;;;;;;12.69;100.00;100330.47;4970357;28;20133;-75
2023/11/23 09:24:51;;;;;;;3.80;1.00;;;;;;;12.81;100.00;100322.06;4972004;28;20042;-75
2023/11/23 09:27:17;;;;;;;2.88;1.13;;;;;;;12.72;100.00;100312.75;4951320;28;20144;-76
2023/11/23 09:29:45;;;;;;;3.17;1.05;;;;;;;12.64;100.00;100310.00;4964320;28;20066;-76
2023/11/23 09:32:11;;;;;;;2.25;0.95;;;;;;;12.48;100.00;100295.22;4970948;28;20034;-76
2023/11/23 09:34:36;;;;;;;1.40;0.73;;;;;;;12.87;100.00;100290.84;4974062;28;20528;-76
2023/11/23 09:37:02;;;;;;;2.95;1.33;;;;;;;12.87;100.00;100293.53;4972289;28;20513;-76
2023/11/23 09:39:34;;;;;;;1.77;0.93;;;;;;;12.51;100.00;100297.16;4950472;28;20167;-76
2023/11/23 09:42:03;;;;;;;8.07;1.17;;;;;;;12.51;100.00;100281.75;4970724;28;20038;-76
2023/11/23 09:44:29;;;;;;;3.03;0.85;;;;;;;12.92;100.00;100281.56;4971914;28;20042;-76
2023/11/23 09:46:56;;;;;;;4.05;0.70;;;;;;;12.66;100.00;100274.47;4970935;28;20040;-76
2023/11/23 09:49:22;;;;;;;3.63;1.10;;;;;;;12.74;100.00;100267.22;4973262;28;20050;-76
2023/11/23 09:51:52;;;;;;;2.05;0.80;;;;;;;12.94;100.00;100271.94;4972536;28;20035;-76
2023/11/23 09:54:21;;;;;;;2.22;0.70;;;;;;;12.74;100.00;100259.88;4962784;28;20045;-76
2023/11/23 09:56:47;;;;;;;2.10;0.90;;;;;;;12.76;100.00;100252.16;4968697;28;20030;-76
2023/11/23 09:59:12;;;;;;;1.65;0.60;;;;;;;12.75;100.00;100255.25;4969387;28;20070;-76
2023/11/23 10:01:47;;;;;;;5.53;1.08;;;;;;;12.78;100.00;100249.84;4973427;28;20046;-76
2023/11/23 10:04:13;;;;;;;0.88;0.60;;;;;;;12.56;100.00;100248.97;4968069;28;20482;-76
2023/11/23 10:06:40;;;;;;;0.65;0.52;;;;;;;12.75;100.00;100247.13;4965547;28;20113;-76
2023/11/23 10:09:09;;;;;;;0.80;0.80;;;;;;;12.62;100.00;100233.94;4974476;28;20509;-75
2023/11/23 10:11:36;;;;;;;0.45;0.45;;;;;;;12.80;100.00;100227.84;4969810;28;20401;-75
2023/11/23 10:14:02;;;;;;;1.40;0.50;;;;;;;12.79;100.00;100232.50;4972526;28;20039;-76
2023/11/23 10:16:31;;;;;;;2.28;0.93;;;;;;;12.97;100.00;100224.47;4981561;28;20090;-76
2023/11/23 10:18:57;;;;;;;5.88;1.27;;;;;;;12.49;100.00;100224.63;4964253;28;20089;-75
2023/11/23 10:21:23;;;;;;;2.45;0.82;;;;;;;12.48;100.00;100235.81;4956720;28;20043;-77
2023/11/23 10:23:49;;;;;;;8.90;1.33;;;;;;;12.65;100.00;100230.50;4972916;28;20037;-76
2023/11/23 10:26:15;;;;;;;2.78;0.98;;;;;;;12.80;100.00;100222.44;4937022;28;20113;-76
2023/11/23 10:28:41;;;;;;;1.70;0.70;;;;;;;12.84;100.00;100207.81;4950055;28;20102;-76
2023/11/23 10:31:06;;;;;;;6.03;0.88;;;;;;;13.07;100.00;100196.69;4957908;28;20094;-77
2023/11/23 10:33:35;;;;;;;5.40;1.27;;;;;;;12.74;100.00;100205.81;4979038;28;20054;-76
2023/11/23 10:36:06;;;;;;;2.63;0.93;;;;;;;12.56;100.00;100197.63;4957606;28;20093;-76
2023/11/23 10:38:38;;;;;;;3.17;1.25;;;;;;;12.80;100.00;100181.91;4957678;28;20129;-77
2023/11/23 10:41:08;;;;;;;1.25;0.65;;;;;;;12.94;100.00;100187.38;4952688;28;20035;-77
2023/11/23 10:43:37;;;;;;;3.40;1.63;;;;;;;12.51;100.00;100183.72;4937960;28;20031;-77
2023/11/23 10:46:09;;;;;;;5.45;0.68;;;;;;;12.57;100.00;100183.00;4971357;28;20027;-76
2023/11/23 10:48:35;;;;;;;4.10;1.67;;;;;;;12.69;100.00;100166.47;4972239;28;20027;-75
2023/11/23 10:51:06;;;;;;;1.20;0.60;;;;;;;12.87;100.00;100176.56;4971149;28;20479;-76
2023/11/23 10:53:35;;;;;;;0.75;0.75;;;;;;;12.95;100.00;100180.81;4968475;28;20553;-77
2023/11/23 10:56:10;;;;;;;1.60;0.73;;;;;;;13.03;100.00;100185.06;4955860;28;20367;-76
2023/11/23 10:58:38;;;;;;;1.52;0.55;;;;;;;12.57;100.00;100177.59;4956324;28;20042;-76
2023/11/23 11:01:07;;;;;;;1.58;0.80;;;;;;;12.63;100.00;100164.50;4972637;28;20062;-76
2023/11/23 11:03:34;;;;;;;1.52;0.93;;;;;;;12.57;100.00;100155.97;4956401;28;20093;-76
2023/11/23 11:06:08;;;;;;;6.45;1.10;;;;;;;12.58;100.00;100146.72;4956063;28;20109;-75
2023/11/23 11:08:38;;;;;;;5.18;0.80;;;;;;;12.89;100.00;100139.09;4985759;28;20027;-76
2023/11/23 11:11:12;;;;;;;4.38;0.90;;;;;;;12.88;100.00;100148.34;4958563;28;20034;-75
2023/11/23 11:13:45;;;;;;;4.80;1.45;;;;;;;12.72;100.00;100134.44;4955832;28;20062;-76
2023/11/23 11:16:15;;;;;;;0.95;0.45;;;;;;;12.97;100.00;100140.66;4971814;28;20418;-75